Scf Alpine — A8XQ2 — position and weather

sailwx.info

Track history (hours):
 
Tides and Currents Weather Stations Pressure Air Temp Water Temp Dewpoint Dewpoint Depression Visibility Wind Speed Wind Dir Waves Ship Positions

Scf Alpine

Last reported at 2016-Jul-15 03:07 UTC. Time now 2016-Jul-25 08:12 UTC.
Position N 02°03' E 102°10'.
Warning: this ship's position is 10 days out of date.

Length 228 m; draft 7.9 m.

Type: Ship (hazmat cat A). MMSI: 636014957.

Date/timePositionNaut miles runAvg speedWind from/ knotsBaromVisibWave heightAir tempDewpointWater temp
2016-Jul-15 03:07N 02°03' E 102°10'813.7
2016-Jul-15 02:32N 01°57' E 102°16'1313.5
2016-Jul-15 01:33N 01°52' E 102°28'1313.3
2016-Jul-15 00:33N 01°46' E 102°40'1312.7
2016-Jul-14 23:33N 01°41' E 102°51'5313.0
2016-Jul-14 19:28N 01°12' E 103°36'7 2.2
2016-Jul-14 16:20N 01°10' E 103°43'0 0.0
2016-Jul-14 15:08N 01°10' E 103°43'0 0.0
2016-Jul-14 10:29N 01°10' E 103°42'3 3.5
2016-Jul-14 09:33N 01°13' E 103°41'1 0.0
2016-Jul-12 16:10N 01°15' E 103°41'1 1.6
2016-Jul-12 15:33N 01°14' E 103°41'2 2.4
2016-Jul-12 14:33N 01°11' E 103°41'0 0.1
2016-Jul-12 13:21N 01°11' E 103°41'0 0.0
2016-Jul-12 10:27N 01°11' E 103°41'5 5.1
2016-Jul-12 09:25N 01°10' E 103°46'1112.2
2016-Jul-12 08:33N 01°14' E 103°55'8 8.5
2016-Jul-12 07:33N 01°16' E 104°04'  
Track history (hours):
 
Tides and Currents Weather Stations Pressure Air Temp Water Temp Dewpoint Dewpoint Depression Visibility Wind Speed Wind Dir Waves Ship Positions

Scf Alpine

Last reported at 2016-Jul-15 03:07 UTC. Time now 2016-Jul-25 08:12 UTC.
Position N 02°03' E 102°10'.
Warning: this ship's position is 10 days out of date.

Length 228 m; draft 7.9 m.

Type: Ship (hazmat cat A). MMSI: 636014957.

Date/timePositionNaut miles runAvg speedWind from/ knotsBaromVisibWave heightAir tempDewpointWater temp
2016-Jul-15 03:07N 02°03' E 102°10'813.7
2016-Jul-15 02:32N 01°57' E 102°16'1313.5
2016-Jul-15 01:33N 01°52' E 102°28'1313.3
2016-Jul-15 00:33N 01°46' E 102°40'1312.7
2016-Jul-14 23:33N 01°41' E 102°51'5313.0
2016-Jul-14 19:28N 01°12' E 103°36'7 2.2
2016-Jul-14 16:20N 01°10' E 103°43'0 0.0
2016-Jul-14 15:08N 01°10' E 103°43'0 0.0
2016-Jul-14 10:29N 01°10' E 103°42'3 3.5
2016-Jul-14 09:33N 01°13' E 103°41'1 0.0
2016-Jul-12 16:10N 01°15' E 103°41'1 1.6
2016-Jul-12 15:33N 01°14' E 103°41'2 2.4
2016-Jul-12 14:33N 01°11' E 103°41'0 0.1
2016-Jul-12 13:21N 01°11' E 103°41'0 0.0
2016-Jul-12 10:27N 01°11' E 103°41'5 5.1
2016-Jul-12 09:25N 01°10' E 103°46'1112.2
2016-Jul-12 08:33N 01°14' E 103°55'8 8.5
2016-Jul-12 07:33N 01°16' E 104°04'  

Dump ship's entire track history